»·PEaware :: N900TB KSBP-KONT

N900TB :: KSBP-KONT

FLIGHT INFORMATION

Flight Status: Arrived
Operator: Privately registered:
United States
More flights under this callsign
Pilot: Saso K. (7898)
Aircraft: SOCATA TBM-900
(TBM9)
More flights by this aircraft type
Origin: KSBP San Luis Co Regl
United States
Destination: KONT Ontario Intl
United States
More flights between these airports :: More routes between these airports
Route: ++ RZS V386 FIM V186 ITSME V264 POM V197 PDZ +
File this flight plan on PilotEdge
Remarks:
Altitude:
(Current/Filed)
11,000ft
Speed:
(Current/Filed)
250kts
Departed: 25-May-18 06:18 PM
Arrived: 25-May-18 07:17 PM
Distance/Time
Traveled:
166nm/0:59
Distance/Time
To Go:
Arrived

Flight Plot

Page will automatically refresh every two minutes.

Flight plan parsing failed; only flown route is shown


Map Options




Map Legend


Flown Route
Filed Route
Departure Airport
Arrival Airport
Navaid (VOR, NDB)
Fix

Horizontal Profiles

Position Reports

Time Latitude Longitude Heading Altitude Ground
Speed
25-May-18 18:02 35.238281 -120.639884 305 190ft 0kts
25-May-18 18:03 35.238281 -120.639884 305 190ft 0kts
25-May-18 18:04 35.238281 -120.639884 305 190ft 0kts
25-May-18 18:05 35.238281 -120.639884 305 190ft 0kts
25-May-18 18:06 35.238281 -120.639884 305 190ft 0kts
25-May-18 18:07 35.238281 -120.639884 305 190ft 0kts
25-May-18 18:08 35.238281 -120.639884 305 190ft 0kts
25-May-18 18:09 35.238281 -120.639884 305 190ft 0kts
25-May-18 18:10 35.238281 -120.639884 305 191ft 0kts
25-May-18 18:11 35.238281 -120.639884 305 191ft 0kts
25-May-18 18:12 35.237951 -120.639984 129 190ft 7kts
25-May-18 18:13 35.236532 -120.637426 126 200ft 10kts
25-May-18 18:14 35.234981 -120.634732 123 210ft 9kts
25-May-18 18:15 35.233310 -120.632223 207 212ft 3kts
25-May-18 18:16 35.233294 -120.632233 209 212ft 0kts
25-May-18 18:17 35.232863 -120.632939 303 210ft 4kts
25-May-18 18:18 35.244817 -120.652610 309 912ft 124kts
25-May-18 18:19 35.271460 -120.692967 304 2065ft 180kts
25-May-18 18:20 35.300678 -120.745863 304 3110ft 198kts
25-May-18 18:21 35.283761 -120.790376 164 4131ft 225kts
25-May-18 18:22 35.229660 -120.751814 152 5173ft 230kts
25-May-18 18:23 35.178653 -120.717469 152 6094ft 231kts
25-May-18 18:24 35.135142 -120.671538 129 7008ft 231kts
25-May-18 18:25 35.100975 -120.621360 130 7838ft 227kts
25-May-18 18:26 35.063655 -120.567055 130 8764ft 235kts
25-May-18 18:27 35.028635 -120.516200 131 9604ft 239kts
25-May-18 18:28 34.987376 -120.456370 131 10571ft 242kts
25-May-18 18:29 34.943176 -120.392435 131 11021ft 267kts
25-May-18 18:30 34.894702 -120.322396 132 11009ft 280kts
25-May-18 18:31 34.846527 -120.252958 132 11004ft 284kts
25-May-18 18:32 34.795882 -120.180099 132 10992ft 285kts
25-May-18 18:33 34.744743 -120.106685 132 10983ft 285kts
25-May-18 18:34 34.693549 -120.033356 132 10981ft 285kts
25-May-18 18:35 34.642154 -119.959879 132 10977ft 285kts
25-May-18 18:36 34.590733 -119.886525 133 10966ft 286kts
25-May-18 18:37 34.540588 -119.815132 133 10955ft 287kts
25-May-18 18:38 34.502833 -119.732305 101 10953ft 292kts
25-May-18 18:39 34.487271 -119.638918 101 11011ft 292kts
25-May-18 18:40 34.470964 -119.542634 101 11011ft 292kts
25-May-18 18:41 34.454564 -119.446327 101 11018ft 292kts
25-May-18 18:42 34.438332 -119.351508 101 10962ft 294kts
25-May-18 18:43 34.423318 -119.264157 102 11022ft 286kts
25-May-18 18:44 34.408052 -119.175770 102 11036ft 288kts
25-May-18 18:45 34.392521 -119.086308 102 11036ft 288kts
25-May-18 18:46 34.377257 -118.998594 102 11027ft 289kts
25-May-18 18:47 34.361243 -118.907098 103 11027ft 289kts
25-May-18 18:48 34.335038 -118.817642 115 11029ft 287kts
25-May-18 18:49 34.326342 -118.737196 91 10627ft 301kts
25-May-18 18:50 34.325356 -118.662362 101 9890ft 296kts
25-May-18 18:51 34.290718 -118.597922 130 9093ft 287kts
25-May-18 18:52 34.244928 -118.525416 130 8187ft 293kts
25-May-18 18:53 34.209630 -118.445940 112 7253ft 286kts
25-May-18 18:54 34.191446 -118.385966 112 6998ft 275kts
25-May-18 18:55 34.176565 -118.336999 113 6994ft 265kts
25-May-18 18:56 34.160770 -118.285081 113 6995ft 257kts
25-May-18 18:57 34.139542 -118.215443 113 7009ft 262kts
25-May-18 18:58 34.115382 -118.136394 113 7018ft 264kts
25-May-18 18:59 34.092669 -118.062261 113 7033ft 267kts
25-May-18 19:00 34.074438 -117.990941 87 7027ft 274kts
25-May-18 19:01 34.076415 -117.916208 89 7036ft 275kts
25-May-18 19:02 34.077749 -117.829652 89 7036ft 276kts
25-May-18 19:03 34.055661 -117.750516 129 7026ft 271kts
25-May-18 19:04 34.015863 -117.686436 129 7013ft 271kts
25-May-18 19:05 33.972372 -117.616618 129 7008ft 271kts
25-May-18 19:06 33.932612 -117.544829 98 6991ft 277kts
25-May-18 19:07 33.941349 -117.466618 81 6970ft 239kts
25-May-18 19:08 33.950553 -117.397948 80 6114ft 237kts
25-May-18 19:09 33.960771 -117.329523 63 5171ft 221kts
25-May-18 19:10 34.009546 -117.311305 1 4991ft 201kts
25-May-18 19:11 34.053251 -117.331005 292 4970ft 186kts
25-May-18 19:12 34.054862 -117.390333 267 4068ft 183kts
25-May-18 19:13 34.054959 -117.447314 268 3134ft 174kts
25-May-18 19:14 34.054988 -117.502710 268 2240ft 170kts
25-May-18 19:15 34.054996 -117.547524 268 1514ft 101kts
25-May-18 19:16 34.054933 -117.572017 269 1134ft 76kts
25-May-18 19:17 34.054889 -117.589958 219 918ft 10kts
25-May-18 19:18 34.054028 -117.589991 215 915ft 8kts
25-May-18 19:19 34.053906 -117.593541 270 914ft 12kts
25-May-18 19:20 34.053892 -117.597567 269 914ft 13kts
25-May-18 19:21 34.053862 -117.600744 269 914ft 4kts
25-May-18 19:22 34.052769 -117.601613 132 911ft 16kts

Navigation Log

Ident Type
Flight plan parsing failed, navigation log unavailable